Time;durP1;ratioP1;P1;durP2;ratioP2;P2;SDS_P1;SDS_P2;PMS_P1;PMS_P2;Temp;Humidity;BMP_temperature;BMP_pressure;BME280_temperature;BME280_humidity;BME280_pressure;Samples;Min_cycle;Max_cycle;Signal;HPM_P1;HPM_P2
2023/07/31 00:01:28;;;;;;;5.67;4.30;;;17.00;99.90;;;;;;5039472;28;20463;-78
2023/07/31 00:03:55;;;;;;;5.07;3.90;;;16.90;99.90;;;;;;5038211;28;20461;-78
2023/07/31 00:06:23;;;;;;;8.50;3.97;;;16.90;99.90;;;;;;5037125;28;20532;-79
2023/07/31 00:08:50;;;;;;;7.63;4.50;;;16.90;99.90;;;;;;5036295;28;20578;-77
2023/07/31 00:11:17;;;;;;;11.80;4.50;;;16.90;99.90;;;;;;5027598;28;20514;-79
2023/07/31 00:13:43;;;;;;;6.33;4.40;;;16.90;99.90;;;;;;5027112;28;20965;-79
2023/07/31 00:16:10;;;;;;;8.00;4.53;;;16.90;99.90;;;;;;5028821;28;20464;-78
2023/07/31 00:18:37;;;;;;;7.33;3.97;;;16.90;99.90;;;;;;5036131;28;20466;-77
2023/07/31 00:21:04;;;;;;;8.67;4.07;;;17.00;99.90;;;;;;5035622;28;20493;-76
2023/07/31 00:23:32;;;;;;;7.10;3.73;;;16.90;99.90;;;;;;5036982;28;20898;-78
2023/07/31 00:25:59;;;;;;;10.73;5.80;;;17.00;99.90;;;;;;5035533;28;20448;-77
2023/07/31 00:28:26;;;;;;;11.10;4.57;;;16.90;99.90;;;;;;5037932;28;20559;-77
2023/07/31 00:30:53;;;;;;;7.43;5.17;;;16.90;99.90;;;;;;5036000;28;20879;-76
2023/07/31 00:33:20;;;;;;;8.93;4.37;;;16.90;99.90;;;;;;5036607;28;20563;-78
2023/07/31 00:35:46;;;;;;;7.23;4.47;;;16.90;99.90;;;;;;5034198;28;20551;-79
2023/07/31 00:38:13;;;;;;;9.20;4.17;;;16.90;99.90;;;;;;5036261;28;20468;-78
2023/07/31 00:40:41;;;;;;;7.17;3.87;;;16.90;99.90;;;;;;5035941;28;20496;-78
2023/07/31 00:43:08;;;;;;;10.70;4.80;;;16.90;99.90;;;;;;5037392;28;20534;-78
2023/07/31 00:45:35;;;;;;;11.83;5.33;;;16.90;99.90;;;;;;5035463;28;20524;-79
2023/07/31 00:48:02;;;;;;;12.50;5.50;;;16.80;99.90;;;;;;5036895;28;20556;-78
2023/07/31 00:50:30;;;;;;;12.43;4.80;;;16.80;99.90;;;;;;5038473;28;20525;-78
2023/07/31 00:52:57;;;;;;;11.13;6.33;;;16.80;99.90;;;;;;5037075;28;20536;-79
2023/07/31 00:55:24;;;;;;;13.10;5.87;;;16.80;99.90;;;;;;5037527;28;20882;-79
2023/07/31 00:57:55;;;;;;;13.00;6.10;;;16.80;99.90;;;;;;5038457;28;20476;-79
2023/07/31 01:00:22;;;;;;;13.07;5.70;;;16.80;99.90;;;;;;5040200;28;20513;-79
2023/07/31 01:02:50;;;;;;;11.77;6.50;;;16.80;99.90;;;;;;5040650;28;20454;-78
2023/07/31 01:05:19;;;;;;;16.30;7.37;;;16.80;99.90;;;;;;5039845;28;20538;-78
2023/07/31 01:07:53;;;;;;;14.03;7.77;;;16.90;99.90;;;;;;5037013;28;20489;-77
2023/07/31 01:10:23;;;;;;;11.73;5.63;;;16.80;99.90;;;;;;5038772;28;20437;-80
2023/07/31 01:12:54;;;;;;;11.57;6.60;;;16.80;99.90;;;;;;5037792;28;20826;-79
2023/07/31 01:15:22;;;;;;;11.20;5.50;;;16.80;99.90;;;;;;5037889;28;20435;-79
2023/07/31 01:17:49;;;;;;;12.00;5.17;;;16.70;99.90;;;;;;5037845;28;20485;-78
2023/07/31 01:20:21;;;;;;;9.63;5.10;;;16.70;99.90;;;;;;5038712;28;20487;-78
2023/07/31 01:23:21;;;;;;;10.23;5.40;;;16.80;99.90;;;;;;5038274;28;20464;-78
2023/07/31 01:26:00;;;;;;;11.60;5.10;;;16.80;99.90;;;;;;5037794;28;20442;-79
2023/07/31 01:28:33;;;;;;;9.93;5.20;;;16.80;99.90;;;;;;5039093;28;20550;-78
2023/07/31 01:31:03;;;;;;;10.80;5.67;;;16.70;99.90;;;;;;5038829;28;20453;-80
2023/07/31 01:33:30;;;;;;;11.90;5.20;;;16.70;99.90;;;;;;5038367;28;20812;-78
2023/07/31 01:35:58;;;;;;;8.70;4.87;;;16.80;99.90;;;;;;5036194;28;20452;-79
2023/07/31 01:38:25;;;;;;;9.77;5.40;;;16.80;99.90;;;;;;5037912;28;20473;-79
2023/07/31 01:40:52;;;;;;;11.50;6.30;;;16.70;99.90;;;;;;5038424;28;20479;-78
2023/07/31 01:43:21;;;;;;;9.87;5.77;;;16.70;99.90;;;;;;5017410;28;20466;-77
2023/07/31 01:45:48;;;;;;;10.10;5.37;;;16.70;99.90;;;;;;5031800;28;20477;-79
2023/07/31 01:48:14;;;;;;;10.67;5.80;;;16.80;99.90;;;;;;5038174;28;20483;-79
2023/07/31 01:50:41;;;;;;;12.70;5.87;;;16.80;99.90;;;;;;5038095;28;20452;-78
2023/07/31 01:53:08;;;;;;;8.60;4.93;;;16.70;99.90;;;;;;5036662;28;20556;-80
2023/07/31 01:55:35;;;;;;;15.60;5.47;;;16.80;99.90;;;;;;5037383;28;20467;-79
2023/07/31 01:58:01;;;;;;;9.27;5.47;;;16.80;99.90;;;;;;5038271;28;20898;-79
2023/07/31 02:00:30;;;;;;;9.40;5.00;;;16.70;99.90;;;;;;5036702;28;20492;-79
2023/07/31 02:02:56;;;;;;;17.07;6.10;;;16.70;99.90;;;;;;5037200;28;20528;-80
2023/07/31 02:05:23;;;;;;;9.50;5.67;;;16.70;99.90;;;;;;5035987;28;20460;-78
2023/07/31 02:07:50;;;;;;;9.73;4.70;;;16.70;99.90;;;;;;5035992;28;20475;-79
2023/07/31 02:10:17;;;;;;;8.33;4.47;;;16.70;99.90;;;;;;5037701;28;20458;-79
2023/07/31 02:12:43;;;;;;;13.13;5.43;;;16.70;99.90;;;;;;5034825;28;20478;-79
2023/07/31 02:15:11;;;;;;;10.77;4.87;;;16.70;99.90;;;;;;5034287;28;20456;-79
2023/07/31 02:17:39;;;;;;;10.50;4.50;;;16.70;99.90;;;;;;5037055;28;20569;-78
2023/07/31 02:20:07;;;;;;;10.53;5.07;;;16.60;99.90;;;;;;5037222;28;20464;-79
2023/07/31 02:22:34;;;;;;;13.30;5.47;;;16.60;99.90;;;;;;5037052;28;20463;-79
2023/07/31 02:25:00;;;;;;;12.97;5.43;;;16.60;99.90;;;;;;5031487;28;20836;-78
2023/07/31 02:27:27;;;;;;;10.60;4.50;;;16.60;99.90;;;;;;5027198;28;20472;-78
2023/07/31 02:29:55;;;;;;;12.70;5.47;;;16.60;99.90;;;;;;5035621;28;20938;-77
2023/07/31 02:32:21;;;;;;;10.37;4.87;;;16.60;99.90;;;;;;5031217;28;20948;-78
2023/07/31 02:34:50;;;;;;;11.53;4.17;;;16.60;99.90;;;;;;5033254;28;20447;-78
2023/07/31 02:37:16;;;;;;;12.90;5.10;;;16.60;99.90;;;;;;5036967;28;20481;-78
2023/07/31 02:39:43;;;;;;;15.27;5.53;;;16.60;99.90;;;;;;5037162;28;20458;-79
2023/07/31 02:42:10;;;;;;;6.83;4.00;;;16.60;99.90;;;;;;5038240;28;20856;-79
2023/07/31 02:44:37;;;;;;;11.50;5.10;;;16.60;99.90;;;;;;5038657;28;20828;-80
2023/07/31 02:47:04;;;;;;;8.93;4.87;;;16.60;99.90;;;;;;5037381;28;20464;-80
2023/07/31 02:49:31;;;;;;;9.70;4.63;;;16.60;99.90;;;;;;5040878;23;20509;-79
2023/07/31 02:51:59;;;;;;;10.50;4.50;;;16.70;99.90;;;;;;5010507;28;20454;-79
2023/07/31 02:54:26;;;;;;;13.23;4.73;;;16.60;99.90;;;;;;5019648;28;20454;-80
2023/07/31 02:56:53;;;;;;;10.17;4.93;;;16.60;99.90;;;;;;5016515;28;20453;-77
2023/07/31 02:59:21;;;;;;;13.90;5.73;;;16.60;99.90;;;;;;5028293;28;20474;-79
2023/07/31 03:01:47;;;;;;;9.77;5.50;;;16.60;99.90;;;;;;5042548;28;20483;-77
2023/07/31 03:04:14;;;;;;;13.97;5.40;;;16.60;99.90;;;;;;5037772;28;20540;-79
2023/07/31 03:06:41;;;;;;;15.30;4.93;;;16.60;99.90;;;;;;5036719;28;20557;-78
2023/07/31 03:09:09;;;;;;;9.50;5.17;;;16.60;99.90;;;;;;5047820;28;20999;-78
2023/07/31 03:11:36;;;;;;;10.17;5.40;;;16.50;99.90;;;;;;5036255;28;20645;-79
2023/07/31 03:14:03;;;;;;;10.50;4.80;;;16.60;99.90;;;;;;5035039;28;20509;-79
2023/07/31 03:16:30;;;;;;;11.00;5.40;;;16.60;99.90;;;;;;5035126;28;20448;-79
2023/07/31 03:18:56;;;;;;;10.33;4.63;;;16.70;99.90;;;;;;5031214;28;20483;-78
2023/07/31 03:21:24;;;;;;;9.27;4.90;;;16.70;99.90;;;;;;5028141;28;20566;-79
2023/07/31 03:23:51;;;;;;;11.23;5.50;;;16.70;99.90;;;;;;5029574;28;21067;-78
2023/07/31 03:26:19;;;;;;;9.00;5.43;;;16.70;99.90;;;;;;5039605;28;20551;-78
2023/07/31 03:28:46;;;;;;;7.13;4.67;;;16.70;99.90;;;;;;5033580;28;20548;-77
2023/07/31 03:31:13;;;;;;;12.97;4.87;;;16.70;99.90;;;;;;5033291;28;20457;-77
2023/07/31 03:33:39;;;;;;;11.57;5.00;;;16.70;99.90;;;;;;5034147;28;20466;-77
2023/07/31 03:36:07;;;;;;;11.13;5.03;;;16.80;99.90;;;;;;5032884;28;20460;-77
2023/07/31 03:38:34;;;;;;;14.60;5.47;;;16.80;99.90;;;;;;5033697;28;20509;-80
2023/07/31 03:41:02;;;;;;;7.60;4.70;;;16.80;99.90;;;;;;5039337;28;20493;-77
2023/07/31 03:43:30;;;;;;;13.00;5.30;;;16.80;99.90;;;;;;5053880;28;20454;-76
2023/07/31 03:45:57;;;;;;;10.60;4.80;;;16.80;99.90;;;;;;5041004;28;20578;-76
2023/07/31 03:48:24;;;;;;;7.13;5.33;;;16.90;99.90;;;;;;5034493;28;20490;-77
2023/07/31 03:50:50;;;;;;;10.17;4.23;;;16.90;99.90;;;;;;5034443;28;20468;-78
2023/07/31 03:53:17;;;;;;;11.93;4.40;;;17.00;99.90;;;;;;5041362;28;20831;-77
2023/07/31 03:55:44;;;;;;;13.47;5.90;;;17.00;99.90;;;;;;5032851;28;20454;-77
2023/07/31 03:58:11;;;;;;;10.97;4.47;;;17.00;99.90;;;;;;5031205;28;20991;-80
2023/07/31 04:00:41;;;;;;;9.97;4.30;;;17.10;99.90;;;;;;5035696;28;20902;-79
2023/07/31 04:03:08;;;;;;;10.80;4.23;;;17.10;99.90;;;;;;5035276;28;21045;-79
2023/07/31 04:05:39;;;;;;;9.13;4.80;;;17.00;99.90;;;;;;5032960;28;20456;-80
2023/07/31 04:08:06;;;;;;;10.90;4.60;;;17.10;99.90;;;;;;5034157;28;20474;-79
2023/07/31 04:10:33;;;;;;;7.63;4.30;;;17.10;99.90;;;;;;5034093;28;20534;-78
2023/07/31 04:13:00;;;;;;;10.40;5.87;;;17.00;99.90;;;;;;5033722;28;20496;-77
2023/07/31 04:15:27;;;;;;;10.70;4.93;;;17.10;99.90;;;;;;5033583;28;20536;-79
2023/07/31 04:17:55;;;;;;;8.00;4.50;;;17.10;99.90;;;;;;5034099;28;20465;-78
2023/07/31 04:20:22;;;;;;;11.30;4.73;;;17.10;99.90;;;;;;5031947;28;20460;-79
2023/07/31 04:22:49;;;;;;;10.93;4.83;;;17.10;99.90;;;;;;5036650;28;20478;-83
2023/07/31 04:25:16;;;;;;;8.53;4.50;;;17.20;99.90;;;;;;5035363;28;20466;-80
2023/07/31 04:27:43;;;;;;;9.93;4.37;;;17.20;99.90;;;;;;5035572;28;20835;-80
2023/07/31 04:30:12;;;;;;;12.00;4.40;;;17.20;99.90;;;;;;5035563;28;20474;-79
2023/07/31 04:32:39;;;;;;;5.90;3.77;;;17.20;99.90;;;;;;5035831;28;20822;-79
2023/07/31 04:35:08;;;;;;;9.07;4.60;;;17.30;99.90;;;;;;5036002;28;20456;-81
2023/07/31 04:37:35;;;;;;;10.80;4.80;;;17.30;99.90;;;;;;5036007;28;20447;-79
2023/07/31 04:40:02;;;;;;;7.37;4.03;;;17.30;99.90;;;;;;5035573;28;20480;-81
2023/07/31 04:42:28;;;;;;;8.60;4.50;;;17.30;99.90;;;;;;5036290;28;20487;-80
2023/07/31 04:44:55;;;;;;;10.30;4.80;;;17.40;99.90;;;;;;5035883;28;20507;-80
2023/07/31 04:47:22;;;;;;;15.30;5.33;;;17.40;99.90;;;;;;5035334;28;20466;-80
2023/07/31 04:49:49;;;;;;;8.30;4.37;;;17.40;99.90;;;;;;5035877;28;20564;-84
2023/07/31 04:52:17;;;;;;;7.70;4.00;;;17.50;99.90;;;;;;5036481;28;20459;-80
2023/07/31 04:54:44;;;;;;;7.03;3.50;;;17.40;99.90;;;;;;5036636;28;20452;-81
2023/07/31 04:57:10;;;;;;;8.93;4.13;;;17.50;99.90;;;;;;5034321;28;20452;-80
2023/07/31 04:59:40;;;;;;;5.43;4.37;;;17.50;99.90;;;;;;5036371;28;20649;-79
2023/07/31 05:02:09;;;;;;;9.60;4.17;;;17.60;99.90;;;;;;5037023;28;20492;-77
2023/07/31 05:04:36;;;;;;;15.13;4.20;;;17.60;99.90;;;;;;5035290;28;20895;-81
2023/07/31 05:07:03;;;;;;;7.63;4.00;;;17.50;99.90;;;;;;5027401;28;20547;-79
2023/07/31 05:09:31;;;;;;;7.40;4.43;;;17.60;99.90;;;;;;5006855;28;20512;-79
2023/07/31 05:11:58;;;;;;;10.27;4.57;;;17.50;99.90;;;;;;5031288;28;20448;-78
2023/07/31 05:14:25;;;;;;;7.40;4.40;;;17.60;99.90;;;;;;5028284;28;20460;-78
2023/07/31 05:16:51;;;;;;;6.90;4.40;;;17.60;99.90;;;;;;5013394;28;20467;-79
2023/07/31 05:19:18;;;;;;;10.73;4.20;;;17.60;99.90;;;;;;5026972;28;20476;-76
2023/07/31 05:21:45;;;;;;;7.93;4.33;;;17.60;99.90;;;;;;4989077;28;20491;-79
2023/07/31 05:24:12;;;;;;;9.93;5.43;;;17.50;99.90;;;;;;5034981;28;20871;-80
2023/07/31 05:26:40;;;;;;;5.23;4.30;;;17.60;99.90;;;;;;5036211;28;20716;-80
2023/07/31 05:29:07;;;;;;;7.10;4.50;;;17.70;99.90;;;;;;5036227;28;20999;-80
2023/07/31 05:31:34;;;;;;;9.07;4.00;;;17.70;99.90;;;;;;5034092;28;20485;-78
2023/07/31 05:34:01;;;;;;;9.50;4.23;;;17.70;99.90;;;;;;5035746;28;20510;-79
2023/07/31 05:36:28;;;;;;;10.67;5.03;;;17.70;99.90;;;;;;5032870;28;20519;-79
2023/07/31 05:38:54;;;;;;;8.67;4.77;;;17.70;99.90;;;;;;5035368;28;20659;-79
2023/07/31 05:41:21;;;;;;;9.43;4.80;;;17.70;99.90;;;;;;5033338;28;20508;-79
2023/07/31 05:43:51;;;;;;;7.17;4.20;;;17.70;99.90;;;;;;5035937;28;20502;-79
2023/07/31 05:46:18;;;;;;;11.70;4.97;;;17.70;99.90;;;;;;5036241;28;20456;-79
2023/07/31 05:48:44;;;;;;;8.00;3.77;;;17.60;99.90;;;;;;5034710;28;20491;-80
2023/07/31 05:51:11;;;;;;;9.60;4.17;;;17.70;99.90;;;;;;5038567;28;20536;-80
2023/07/31 05:53:40;;;;;;;6.33;3.80;;;17.70;99.90;;;;;;5038705;28;20512;-80
2023/07/31 05:56:07;;;;;;;12.33;6.07;;;17.80;99.90;;;;;;5038855;28;20948;-81
2023/07/31 05:58:34;;;;;;;10.20;4.50;;;17.70;99.90;;;;;;5038895;28;20502;-80
2023/07/31 06:01:02;;;;;;;8.20;4.70;;;17.70;99.90;;;;;;5037346;28;20942;-80
2023/07/31 06:03:29;;;;;;;7.70;4.97;;;17.70;99.90;;;;;;5033023;28;20459;-79
2023/07/31 06:05:57;;;;;;;7.30;5.60;;;17.70;99.90;;;;;;5034536;28;20445;-80
2023/07/31 06:08:24;;;;;;;8.20;4.43;;;17.70;99.90;;;;;;5035233;28;21096;-79
2023/07/31 06:10:50;;;;;;;7.00;4.77;;;17.60;99.90;;;;;;5038958;28;20976;-80
2023/07/31 06:13:17;;;;;;;8.27;4.77;;;17.60;99.90;;;;;;5038852;28;20516;-81
2023/07/31 06:15:44;;;;;;;8.27;4.80;;;17.70;99.90;;;;;;5035448;28;20461;-81
2023/07/31 06:18:12;;;;;;;8.87;5.40;;;17.70;99.90;;;;;;5033002;28;20476;-79
2023/07/31 06:20:40;;;;;;;7.77;4.83;;;17.70;99.90;;;;;;5034298;28;20495;-81
2023/07/31 06:23:07;;;;;;;7.53;4.73;;;17.70;99.90;;;;;;5034920;28;20970;-81
2023/07/31 06:25:34;;;;;;;5.97;4.27;;;17.80;99.90;;;;;;5033783;28;21036;-81
2023/07/31 06:28:01;;;;;;;8.80;4.67;;;17.70;99.90;;;;;;5031958;28;20595;-81
2023/07/31 06:30:28;;;;;;;6.43;4.50;;;17.80;99.90;;;;;;5032061;28;20460;-79
2023/07/31 06:32:55;;;;;;;6.33;4.03;;;17.80;99.90;;;;;;5036292;28;20458;-78
2023/07/31 06:35:23;;;;;;;13.90;6.10;;;17.80;99.90;;;;;;5030973;28;20452;-80
2023/07/31 06:37:50;;;;;;;6.47;5.30;;;17.80;99.90;;;;;;5037262;28;20467;-80
2023/07/31 06:40:17;;;;;;;6.17;4.73;;;17.90;99.90;;;;;;5035433;28;20486;-80
2023/07/31 06:42:44;;;;;;;7.63;4.80;;;17.90;99.90;;;;;;5037825;28;20575;-81
2023/07/31 06:45:14;;;;;;;7.63;4.80;;;17.90;99.90;;;;;;5044583;28;20463;-80
2023/07/31 06:47:41;;;;;;;9.93;4.60;;;17.90;99.90;;;;;;5043649;28;20441;-80
2023/07/31 06:50:08;;;;;;;6.67;4.40;;;17.90;99.90;;;;;;5045049;28;20529;-83
2023/07/31 06:52:37;;;;;;;7.20;4.00;;;17.90;99.90;;;;;;5041798;28;20480;-83
2023/07/31 06:55:05;;;;;;;8.27;4.47;;;17.90;99.90;;;;;;5044681;28;20460;-81
2023/07/31 06:57:32;;;;;;;7.00;5.40;;;17.90;99.90;;;;;;5040687;28;20469;-81
2023/07/31 06:59:59;;;;;;;8.80;5.33;;;17.90;99.90;;;;;;5043460;28;20540;-82
2023/07/31 07:02:26;;;;;;;7.30;4.40;;;17.80;99.90;;;;;;5046382;28;20512;-82
2023/07/31 07:04:53;;;;;;;9.97;5.90;;;17.80;99.90;;;;;;5038772;28;20452;-81
2023/07/31 07:07:20;;;;;;;7.70;4.40;;;17.80;99.90;;;;;;5033425;28;20491;-81
2023/07/31 07:09:48;;;;;;;5.57;4.23;;;17.80;99.90;;;;;;5036201;28;20469;-82
2023/07/31 07:12:15;;;;;;;6.50;4.20;;;17.80;99.90;;;;;;5034886;28;20454;-82
2023/07/31 07:14:42;;;;;;;6.97;4.83;;;17.80;99.90;;;;;;5027088;28;20488;-81
2023/07/31 07:17:08;;;;;;;6.97;4.03;;;17.80;99.90;;;;;;5028555;28;20999;-81
2023/07/31 07:19:35;;;;;;;11.13;4.80;;;17.70;99.90;;;;;;5031773;28;20555;-80
2023/07/31 07:22:02;;;;;;;7.07;4.37;;;17.70;99.90;;;;;;5033244;28;20514;-79
2023/07/31 07:24:29;;;;;;;9.03;5.20;;;17.70;99.90;;;;;;5036838;28;20535;-79
2023/07/31 07:26:57;;;;;;;8.33;5.10;;;17.60;99.90;;;;;;5035538;28;20856;-79
2023/07/31 07:29:24;;;;;;;6.87;4.03;;;17.60;99.90;;;;;;5047461;28;20474;-79
2023/07/31 07:31:51;;;;;;;6.50;3.77;;;17.60;99.90;;;;;;5044915;28;20456;-80
2023/07/31 07:34:18;;;;;;;7.07;4.43;;;17.60;99.90;;;;;;5035216;28;20602;-79
2023/07/31 07:36:45;;;;;;;6.20;4.30;;;17.60;99.90;;;;;;5034094;28;20987;-79
2023/07/31 07:39:12;;;;;;;9.63;4.70;;;17.60;99.90;;;;;;5035991;28;21040;-79
2023/07/31 07:41:38;;;;;;;5.83;4.50;;;17.60;99.90;;;;;;5037753;28;20500;-80
2023/07/31 07:44:07;;;;;;;7.00;4.40;;;17.60;99.90;;;;;;5037879;28;20457;-78
2023/07/31 07:46:33;;;;;;;7.43;3.80;;;17.50;99.90;;;;;;5042906;28;20830;-79
2023/07/31 07:49:00;;;;;;;6.30;4.33;;;17.50;99.90;;;;;;5044251;28;20552;-80
2023/07/31 07:51:29;;;;;;;8.40;4.53;;;17.50;99.90;;;;;;5041787;28;20510;-81
2023/07/31 07:53:56;;;;;;;9.70;5.00;;;17.50;99.90;;;;;;5042143;28;21008;-80
2023/07/31 07:56:23;;;;;;;7.63;4.30;;;17.50;99.90;;;;;;5037772;28;20468;-79
2023/07/31 07:58:50;;;;;;;7.73;4.10;;;17.50;99.90;;;;;;5035165;28;20515;-80
2023/07/31 08:01:18;;;;;;;5.73;4.20;;;17.40;99.90;;;;;;5028397;28;20454;-80
2023/07/31 08:03:45;;;;;;;9.00;4.70;;;17.50;99.90;;;;;;5032800;28;20479;-81
2023/07/31 08:06:12;;;;;;;6.80;4.23;;;17.40;99.90;;;;;;5031018;28;20449;-79
2023/07/31 08:08:39;;;;;;;6.20;4.23;;;17.40;99.90;;;;;;5032118;28;20476;-80
2023/07/31 08:11:07;;;;;;;5.30;4.23;;;17.40;99.90;;;;;;5033998;28;20874;-79
2023/07/31 08:13:34;;;;;;;8.17;5.00;;;17.40;99.90;;;;;;5029904;28;20469;-78
2023/07/31 08:16:00;;;;;;;7.50;4.40;;;17.40;99.90;;;;;;5038611;28;20451;-80
2023/07/31 08:18:29;;;;;;;8.50;4.47;;;17.40;99.90;;;;;;5042938;28;20559;-80
2023/07/31 08:20:55;;;;;;;7.97;4.07;;;17.40;99.90;;;;;;5040124;28;20475;-82
2023/07/31 08:23:22;;;;;;;7.30;4.60;;;17.50;99.90;;;;;;5033194;28;20499;-80
2023/07/31 08:25:50;;;;;;;8.13;4.40;;;17.50;99.90;;;;;;5035638;28;20444;-80
2023/07/31 08:28:17;;;;;;;15.00;4.47;;;17.50;99.90;;;;;;5032545;28;20490;-81
2023/07/31 08:30:44;;;;;;;9.40;3.90;;;17.40;99.90;;;;;;5017141;28;20456;-80
2023/07/31 08:33:11;;;;;;;5.67;3.50;;;17.40;99.90;;;;;;5029217;28;20521;-80
2023/07/31 08:35:39;;;;;;;4.57;3.17;;;17.40;99.90;;;;;;5031524;28;20455;-78
2023/07/31 08:38:06;;;;;;;5.17;2.93;;;17.40;99.90;;;;;;5033862;28;20983;-80
2023/07/31 08:40:33;;;;;;;4.83;3.70;;;17.40;99.90;;;;;;5038121;28;20462;-81
2023/07/31 08:43:02;;;;;;;4.00;2.80;;;17.30;99.90;;;;;;5034720;28;20492;-80
2023/07/31 08:45:29;;;;;;;9.20;3.33;;;17.30;99.90;;;;;;5036051;28;20464;-79
2023/07/31 08:47:57;;;;;;;4.90;2.67;;;17.30;99.90;;;;;;5019295;28;20528;-79
2023/07/31 08:50:24;;;;;;;4.57;3.40;;;17.30;99.90;;;;;;5056892;22;20585;-81
2023/07/31 08:52:53;;;;;;;4.20;3.33;;;17.40;99.90;;;;;;5035151;28;20462;-80
2023/07/31 08:55:23;;;;;;;5.60;3.07;;;17.40;99.90;;;;;;5031894;28;20460;-80
2023/07/31 08:57:52;;;;;;;4.20;3.27;;;17.40;99.90;;;;;;5039858;28;20453;-80
2023/07/31 09:00:23;;;;;;;4.50;3.43;;;17.30;99.90;;;;;;5038469;28;20484;-80
2023/07/31 09:02:56;;;;;;;5.57;2.80;;;17.30;99.90;;;;;;5033172;28;21096;-80
2023/07/31 09:05:24;;;;;;;4.67;3.03;;;17.30;99.90;;;;;;5031379;28;20444;-80
2023/07/31 09:07:52;;;;;;;5.53;3.30;;;17.30;99.90;;;;;;5024833;28;20467;-80
2023/07/31 09:10:19;;;;;;;5.17;3.37;;;17.30;99.90;;;;;;5017815;28;20930;-81
2023/07/31 09:12:47;;;;;;;4.40;3.40;;;17.40;99.90;;;;;;5021657;28;20544;-80
2023/07/31 09:15:14;;;;;;;4.00;3.07;;;17.40;99.90;;;;;;5013005;28;20448;-81
2023/07/31 09:17:41;;;;;;;5.60;3.10;;;17.40;99.90;;;;;;5013551;28;20486;-81
2023/07/31 09:20:15;;;;;;;5.20;3.10;;;17.30;99.90;;;;;;5024795;28;21348;-81
2023/07/31 09:22:43;;;;;;;3.73;2.50;;;17.40;99.90;;;;;;5025800;28;20498;-80
2023/07/31 09:25:19;;;;;;;6.40;2.97;;;17.30;99.90;;;;;;5026611;28;21018;-80
2023/07/31 09:27:50;;;;;;;4.23;2.63;;;17.30;99.90;;;;;;5028434;28;20886;-82
2023/07/31 09:30:18;;;;;;;7.90;3.70;;;17.40;99.90;;;;;;5038937;28;20498;-82
2023/07/31 09:32:45;;;;;;;6.50;2.97;;;17.40;99.90;;;;;;5045684;28;20676;-79
2023/07/31 09:35:20;;;;;;;8.10;2.93;;;17.30;99.90;;;;;;5036859;28;20460;-78
2023/07/31 09:37:52;;;;;;;4.07;3.10;;;17.40;99.90;;;;;;5033167;28;20460;-79
2023/07/31 09:40:38;;;;;;;5.47;3.23;;;17.30;99.90;;;;;;5027664;28;20467;-79
2023/07/31 09:43:06;;;;;;;4.07;3.20;;;17.30;99.90;;;;;;5040553;28;20590;-79
2023/07/31 09:45:35;;;;;;;3.83;2.83;;;17.30;99.90;;;;;;5027340;28;20463;-79
2023/07/31 09:48:03;;;;;;;8.23;2.57;;;17.30;99.90;;;;;;5019551;28;20950;-79
2023/07/31 09:50:31;;;;;;;5.03;2.70;;;17.40;99.90;;;;;;5026362;28;20578;-80
2023/07/31 09:52:57;;;;;;;4.90;3.10;;;17.40;99.90;;;;;;5021468;28;20579;-80
2023/07/31 09:55:25;;;;;;;3.60;3.07;;;17.50;99.90;;;;;;5023891;28;20460;-82
2023/07/31 09:57:57;;;;;;;4.00;2.77;;;17.60;99.90;;;;;;5017505;28;20538;-79
2023/07/31 10:00:26;;;;;;;3.40;2.43;;;17.70;99.90;;;;;;5027787;28;20546;-79
2023/07/31 10:02:54;;;;;;;3.07;2.30;;;17.80;99.90;;;;;;5036046;28;20696;-81
2023/07/31 10:05:22;;;;;;;6.57;2.80;;;17.80;99.90;;;;;;5034511;28;20444;-80
2023/07/31 10:07:54;;;;;;;4.50;2.40;;;17.70;99.90;;;;;;5023174;28;20475;-81
2023/07/31 10:10:21;;;;;;;4.27;2.70;;;17.70;99.90;;;;;;5021699;28;20491;-80
2023/07/31 10:12:49;;;;;;;3.57;2.80;;;17.70;99.90;;;;;;5021676;28;20455;-81
2023/07/31 10:15:18;;;;;;;4.10;2.30;;;17.70;99.90;;;;;;5014181;28;20536;-80
2023/07/31 10:17:47;;;;;;;4.97;3.00;;;17.60;99.90;;;;;;5014820;28;20453;-80
2023/07/31 10:20:16;;;;;;;2.60;2.37;;;17.60;99.90;;;;;;5032686;28;20999;-79
2023/07/31 10:22:43;;;;;;;4.30;2.23;;;17.60;99.90;;;;;;5031462;28;20495;-79
2023/07/31 10:25:11;;;;;;;4.23;2.23;;;17.60;99.90;;;;;;5018343;28;20915;-80
2023/07/31 10:27:39;;;;;;;3.97;2.60;;;17.60;99.90;;;;;;5014985;28;20528;-80
2023/07/31 10:30:09;;;;;;;3.47;2.37;;;17.60;99.90;;;;;;5022329;28;20507;-82
2023/07/31 10:32:39;;;;;;;3.30;2.50;;;17.70;99.90;;;;;;5014117;28;20524;-81
2023/07/31 10:35:08;;;;;;;3.73;2.33;;;17.60;99.90;;;;;;5024796;28;20625;-79
2023/07/31 10:37:38;;;;;;;3.10;2.00;;;17.60;99.90;;;;;;5014260;28;20461;-81
2023/07/31 10:40:06;;;;;;;2.60;1.80;;;17.70;99.90;;;;;;5020521;28;20481;-80
2023/07/31 10:42:35;;;;;;;3.50;2.60;;;17.60;99.90;;;;;;5039376;28;20452;-81
2023/07/31 10:45:04;;;;;;;2.80;2.10;;;17.50;99.90;;;;;;5019926;28;20491;-79
2023/07/31 10:47:31;;;;;;;2.60;1.80;;;17.60;99.90;;;;;;5034458;28;20839;-80
2023/07/31 10:50:19;;;;;;;4.53;2.70;;;17.60;99.90;;;;;;5033331;28;20480;-81
2023/07/31 10:52:49;;;;;;;6.17;2.90;;;17.60;99.90;;;;;;5013414;28;20433;-81
2023/07/31 10:55:27;;;;;;;3.47;2.60;;;17.60;99.90;;;;;;5025030;28;20456;-80
2023/07/31 10:57:58;;;;;;;2.80;2.20;;;17.60;99.90;;;;;;5025966;28;20444;-81
2023/07/31 11:00:27;;;;;;;3.20;2.30;;;17.60;99.90;;;;;;5034815;28;20464;-81
2023/07/31 11:02:58;;;;;;;4.67;2.60;;;17.60;99.90;;;;;;5034911;28;20578;-80
2023/07/31 11:05:48;;;;;;;6.20;3.10;;;17.70;99.90;;;;;;5015242;28;20469;-81
2023/07/31 11:08:17;;;;;;;6.60;3.80;;;17.60;99.90;;;;;;5022657;28;20447;-80
2023/07/31 11:10:44;;;;;;;5.20;3.70;;;17.70;99.90;;;;;;5029457;28;20487;-80
2023/07/31 11:13:11;;;;;;;5.60;3.70;;;17.60;99.90;;;;;;5034449;28;20456;-79
2023/07/31 11:15:38;;;;;;;4.47;3.33;;;17.60;99.90;;;;;;5034002;28;21037;-81
2023/07/31 11:18:07;;;;;;;5.03;4.23;;;17.70;99.90;;;;;;5033497;28;20448;-81
2023/07/31 11:20:35;;;;;;;8.30;3.80;;;17.70;99.90;;;;;;5023366;28;20486;-81
2023/07/31 11:23:06;;;;;;;5.10;4.07;;;17.70;99.90;;;;;;5024701;28;20497;-80
2023/07/31 11:25:34;;;;;;;5.63;3.80;;;17.70;99.90;;;;;;5033769;28;20455;-82
2023/07/31 11:28:04;;;;;;;7.80;3.70;;;17.70;99.90;;;;;;5020898;28;20556;-83
2023/07/31 11:30:31;;;;;;;4.37;3.70;;;17.80;99.90;;;;;;5035330;28;20481;-82
2023/07/31 11:32:58;;;;;;;4.90;3.83;;;17.80;99.90;;;;;;5021614;28;20462;-80
2023/07/31 11:35:25;;;;;;;5.53;3.60;;;17.80;99.90;;;;;;5023126;28;20445;-81
2023/07/31 11:37:51;;;;;;;5.60;3.57;;;17.90;99.90;;;;;;5025208;28;20547;-83
2023/07/31 11:40:20;;;;;;;4.30;3.90;;;18.00;99.90;;;;;;5025037;28;20511;-81
2023/07/31 11:42:47;;;;;;;6.43;4.13;;;18.10;99.90;;;;;;5024535;28;20934;-82
2023/07/31 11:45:14;;;;;;;6.20;3.43;;;18.10;99.90;;;;;;5021518;28;20474;-81
2023/07/31 11:47:41;;;;;;;5.43;3.10;;;18.10;99.90;;;;;;5022703;28;20893;-79
2023/07/31 11:50:12;;;;;;;3.77;2.93;;;18.10;99.90;;;;;;5022730;28;20565;-81
2023/07/31 11:52:43;;;;;;;7.70;3.60;;;18.30;99.90;;;;;;5023634;28;20918;-81
2023/07/31 11:55:10;;;;;;;5.23;3.30;;;18.30;99.90;;;;;;5026227;28;20517;-81
2023/07/31 11:57:40;;;;;;;5.50;3.20;;;18.40;99.90;;;;;;5026596;28;20448;-81
2023/07/31 12:00:10;;;;;;;6.03;3.00;;;18.50;99.90;;;;;;5024883;28;20480;-81
2023/07/31 12:02:39;;;;;;;4.77;3.00;;;18.60;99.90;;;;;;5026098;28;20825;-80
2023/07/31 12:05:07;;;;;;;4.20;2.50;;;18.60;99.90;;;;;;5023198;28;20858;-78
2023/07/31 12:07:50;;;;;;;3.90;2.70;;;18.70;99.90;;;;;;5027223;28;21201;-81
2023/07/31 12:10:30;;;;;;;3.80;3.10;;;18.70;99.90;;;;;;5022420;28;20511;-80
2023/07/31 12:13:04;;;;;;;5.93;3.40;;;18.90;99.90;;;;;;5020358;28;20454;-80
2023/07/31 12:15:34;;;;;;;4.90;3.53;;;18.90;99.90;;;;;;5020520;28;20493;-81
2023/07/31 12:18:01;;;;;;;3.50;3.20;;;18.90;99.90;;;;;;5026832;28;20884;-81
2023/07/31 12:20:28;;;;;;;4.23;3.30;;;18.90;99.90;;;;;;5022295;28;20476;-81
2023/07/31 12:22:58;;;;;;;4.17;2.30;;;18.90;99.90;;;;;;5022087;28;20450;-81
2023/07/31 12:25:30;;;;;;;4.17;2.63;;;19.00;99.90;;;;;;5024638;28;20991;-80
2023/07/31 12:27:57;;;;;;;6.60;3.00;;;19.00;99.90;;;;;;5020910;28;20544;-79
2023/07/31 12:30:35;;;;;;;4.97;2.60;;;19.00;99.90;;;;;;5024397;28;20543;-82
2023/07/31 12:33:05;;;;;;;4.23;2.60;;;18.90;99.90;;;;;;5025312;28;20449;-80
2023/07/31 12:35:37;;;;;;;2.60;2.20;;;18.80;99.90;;;;;;5022502;28;20457;-79
2023/07/31 12:38:04;;;;;;;3.90;2.37;;;18.80;99.90;;;;;;5022098;28;20456;-79
2023/07/31 12:40:31;;;;;;;5.07;3.07;;;18.80;99.90;;;;;;5021358;28;20474;-78
2023/07/31 12:42:58;;;;;;;3.40;2.63;;;18.80;99.90;;;;;;5022434;28;20559;-78
2023/07/31 12:45:24;;;;;;;3.23;2.70;;;18.70;99.90;;;;;;5021357;28;20492;-81
2023/07/31 12:47:53;;;;;;;3.57;2.40;;;18.70;99.90;;;;;;5022101;28;20941;-80